createdAt,value
2017-12-27T00:01:13.859Z,0
2017-12-27T00:02:36.011Z,0
2017-12-27T00:03:57.875Z,0
2017-12-27T00:05:19.844Z,0
2017-12-27T00:06:41.724Z,0
2017-12-27T00:08:03.608Z,0
2017-12-27T00:09:25.334Z,0
2017-12-27T00:10:46.945Z,0
2017-12-27T00:12:08.869Z,0
2017-12-27T00:13:30.606Z,0
2017-12-27T00:14:52.235Z,0
2017-12-27T00:16:14.235Z,0
2017-12-27T00:17:36.513Z,0
2017-12-27T00:18:58.648Z,0
2017-12-27T00:20:20.268Z,0
2017-12-27T00:21:42.429Z,0
2017-12-27T00:23:04.322Z,0
2017-12-27T00:24:26.453Z,0
2017-12-27T00:25:48.345Z,0
2017-12-27T00:27:10.050Z,0
2017-12-27T00:28:31.667Z,0
2017-12-27T00:29:53.527Z,0
2017-12-27T00:31:15.123Z,0
2017-12-27T00:32:36.979Z,0
2017-12-27T00:33:58.365Z,0
2017-12-27T00:35:20.593Z,0
2017-12-27T00:36:42.702Z,0
2017-12-27T00:38:04.620Z,0
2017-12-27T00:39:26.218Z,0
2017-12-27T00:40:48.079Z,0
2017-12-27T00:42:09.474Z,0
2017-12-27T00:43:31.603Z,0
2017-12-27T00:44:53.740Z,0
2017-12-27T00:46:15.850Z,0
2017-12-27T00:47:37.713Z,0
2017-12-27T00:48:59.826Z,0
2017-12-27T00:50:22.025Z,0
2017-12-27T00:51:43.873Z,0
2017-12-27T00:53:05.466Z,0
2017-12-27T00:54:27.083Z,0
2017-12-27T00:55:49.264Z,0
2017-12-27T00:57:11.515Z,0
2017-12-27T00:58:33.368Z,0
2017-12-27T00:59:55.488Z,0
2017-12-27T01:01:17.135Z,0
2017-12-27T01:02:38.986Z,0
2017-12-27T01:04:00.864Z,0
2017-12-27T01:05:22.731Z,0
2017-12-27T01:06:44.635Z,0
2017-12-27T01:08:06.770Z,0
2017-12-27T01:09:28.907Z,0
2017-12-27T01:10:50.876Z,0
2017-12-27T01:12:12.726Z,0
2017-12-27T01:13:34.579Z,0
2017-12-27T01:14:56.198Z,0
2017-12-27T01:16:18.053Z,0
2017-12-27T01:17:39.654Z,0
2017-12-27T01:19:01.500Z,0
2017-12-27T01:20:23.664Z,0
2017-12-27T01:21:45.784Z,0
2017-12-27T01:23:07.512Z,0
2017-12-27T01:24:29.406Z,0
2017-12-27T01:25:50.745Z,0
2017-12-27T01:27:12.635Z,0
2017-12-27T01:28:34.239Z,0
2017-12-27T01:29:55.564Z,0
2017-12-27T01:31:17.326Z,0
2017-12-27T01:32:39.317Z,0
2017-12-27T01:34:00.635Z,0
2017-12-27T01:35:22.694Z,0
2017-12-27T01:36:44.051Z,0
2017-12-27T01:38:05.937Z,0
2017-12-27T01:39:27.783Z,0
2017-12-27T01:40:49.794Z,0
2017-12-27T01:42:11.445Z,0
2017-12-27T01:43:33.065Z,0
2017-12-27T01:44:54.928Z,0
2017-12-27T01:46:16.564Z,0
2017-12-27T01:47:38.447Z,0
2017-12-27T01:49:00.454Z,0
2017-12-27T01:50:22.376Z,0
2017-12-27T01:51:44.498Z,0
2017-12-27T01:53:06.357Z,0
2017-12-27T01:54:27.965Z,0
2017-12-27T01:55:50.098Z,0
2017-12-27T01:57:11.744Z,0
2017-12-27T01:58:33.435Z,0
2017-12-27T01:59:55.375Z,0
2017-12-27T02:01:17.461Z,0
2017-12-27T02:02:39.053Z,0
2017-12-27T02:04:00.573Z,0
2017-12-27T02:05:22.169Z,0
2017-12-27T02:06:44.080Z,0
2017-12-27T02:08:06.365Z,0
2017-12-27T02:09:28.224Z,0
2017-12-27T02:10:49.861Z,0
2017-12-27T02:12:11.564Z,0
2017-12-27T02:13:33.448Z,0
2017-12-27T02:14:55.545Z,0
2017-12-27T02:16:16.884Z,0
2017-12-27T02:17:37.975Z,0
2017-12-27T02:18:59.564Z,0
2017-12-27T02:20:21.514Z,0
2017-12-27T02:21:43.418Z,0
2017-12-27T02:23:05.308Z,0
2017-12-27T02:24:26.989Z,0
2017-12-27T02:25:48.060Z,0
2017-12-27T02:27:10.101Z,0
2017-12-27T02:28:31.443Z,0
2017-12-27T02:29:53.654Z,0
2017-12-27T02:31:14.461Z,0
2017-12-27T02:32:36.052Z,0
2017-12-27T02:33:58.031Z,0
2017-12-27T02:35:19.627Z,0
2017-12-27T02:36:40.967Z,0
2017-12-27T02:38:02.436Z,0
2017-12-27T02:39:24.285Z,0
2017-12-27T02:40:45.872Z,0
2017-12-27T02:42:07.201Z,0
2017-12-27T02:43:28.795Z,0
2017-12-27T02:44:50.388Z,0
2017-12-27T02:46:12.205Z,0
2017-12-27T02:47:34.082Z,0
2017-12-27T02:48:55.665Z,0
2017-12-27T02:50:17.595Z,0
2017-12-27T02:51:39.029Z,0
2017-12-27T02:53:01.153Z,0
2017-12-27T02:54:22.913Z,0
2017-12-27T02:55:44.255Z,0
2017-12-27T02:57:06.358Z,0
2017-12-27T02:58:28.255Z,0
2017-12-27T02:59:49.713Z,0
2017-12-27T03:01:11.568Z,0
2017-12-27T03:02:33.740Z,0
2017-12-27T03:03:55.487Z,0
2017-12-27T03:05:17.343Z,0
2017-12-27T03:06:38.417Z,0
2017-12-27T03:08:00.770Z,0
2017-12-27T03:09:22.603Z,0
2017-12-27T03:10:44.205Z,0
2017-12-27T03:12:05.846Z,0
2017-12-27T03:13:27.716Z,0
2017-12-27T03:14:49.137Z,0
2017-12-27T03:16:11.236Z,0
2017-12-27T03:17:32.314Z,0
2017-12-27T03:18:54.236Z,0
2017-12-27T03:20:16.155Z,0
2017-12-27T03:21:38.001Z,0
2017-12-27T03:22:59.345Z,0
2017-12-27T03:24:21.155Z,0
2017-12-27T03:25:42.984Z,0
2017-12-27T03:27:04.619Z,0
2017-12-27T03:28:26.525Z,0
2017-12-27T03:29:48.369Z,0
2017-12-27T03:31:10.480Z,0
2017-12-27T03:32:31.805Z,0
2017-12-27T03:33:53.384Z,0
2017-12-27T03:35:15.234Z,0
2017-12-27T03:36:37.100Z,0
2017-12-27T03:37:58.955Z,0
2017-12-27T03:39:20.316Z,0
2017-12-27T03:40:41.918Z,0
2017-12-27T03:42:03.973Z,0
2017-12-27T03:43:25.565Z,0
2017-12-27T03:44:47.417Z,0
2017-12-27T03:46:09.276Z,0
2017-12-27T03:47:30.979Z,0
2017-12-27T03:48:52.574Z,0
2017-12-27T03:50:14.172Z,0
2017-12-27T03:51:35.756Z,0
2017-12-27T03:52:57.621Z,0
2017-12-27T03:54:18.958Z,0
2017-12-27T03:55:40.834Z,0
2017-12-27T03:57:02.705Z,0
2017-12-27T03:58:24.636Z,0
2017-12-27T03:59:46.147Z,0
2017-12-27T04:01:07.734Z,0
2017-12-27T04:02:29.576Z,0
2017-12-27T04:03:51.689Z,0
2017-12-27T04:05:13.435Z,0
2017-12-27T04:06:35.396Z,0
2017-12-27T04:07:56.965Z,0
2017-12-27T04:09:18.834Z,0
2017-12-27T04:10:40.708Z,0
2017-12-27T04:12:02.373Z,0
2017-12-27T04:13:24.175Z,0
2017-12-27T04:14:46.300Z,0
2017-12-27T04:16:08.152Z,0
2017-12-27T04:17:29.824Z,0
2017-12-27T04:18:51.782Z,0
2017-12-27T04:20:13.675Z,0
2017-12-27T04:21:35.792Z,0
2017-12-27T04:22:57.375Z,0
2017-12-27T04:24:19.240Z,0
2017-12-27T04:25:41.005Z,0
2017-12-27T04:27:02.896Z,0
2017-12-27T04:28:24.488Z,0
2017-12-27T04:29:46.335Z,0
2017-12-27T04:31:07.923Z,0
2017-12-27T04:32:29.255Z,0
2017-12-27T04:33:51.371Z,0
2017-12-27T04:35:13.069Z,0
2017-12-27T04:36:34.417Z,0
2017-12-27T04:37:56.305Z,0
2017-12-27T04:39:18.413Z,0
2017-12-27T04:40:40.000Z,0
2017-12-27T04:42:01.960Z,0
2017-12-27T04:43:23.797Z,0
2017-12-27T04:44:45.449Z,0
2017-12-27T04:46:06.832Z,0
2017-12-27T04:47:28.685Z,0
2017-12-27T04:48:50.396Z,0
2017-12-27T04:50:12.605Z,0
2017-12-27T04:51:33.683Z,0
2017-12-27T04:52:55.268Z,0
2017-12-27T04:54:16.747Z,0
2017-12-27T04:55:38.614Z,0
2017-12-27T04:56:59.955Z,0
2017-12-27T04:58:21.842Z,0
2017-12-27T04:59:43.724Z,0
2017-12-27T05:01:05.416Z,0
2017-12-27T05:02:27.384Z,0
2017-12-27T05:03:49.076Z,0
2017-12-27T05:05:11.311Z,0
2017-12-27T05:06:33.199Z,0
2017-12-27T05:07:54.548Z,0
2017-12-27T05:09:15.883Z,0
2017-12-27T05:10:37.578Z,0
2017-12-27T05:11:59.664Z,0
2017-12-27T05:13:21.259Z,0
2017-12-27T05:14:43.385Z,0
2017-12-27T05:16:05.296Z,0
2017-12-27T05:17:26.637Z,0
2017-12-27T05:18:48.643Z,0
2017-12-27T05:20:10.500Z,0
2017-12-27T05:21:32.092Z,0
2017-12-27T05:22:53.807Z,0
2017-12-27T05:24:15.409Z,0
2017-12-27T05:25:37.065Z,0
2017-12-27T05:26:58.908Z,0
2017-12-27T05:28:20.035Z,0
2017-12-27T05:29:42.145Z,0
2017-12-27T05:31:04.015Z,0
2017-12-27T05:32:26.285Z,0
2017-12-27T05:33:48.416Z,0
2017-12-27T05:35:10.274Z,0
2017-12-27T05:36:32.613Z,0
2017-12-27T05:37:54.044Z,0
2017-12-27T05:39:15.928Z,0
2017-12-27T05:40:37.522Z,0
2017-12-27T05:41:59.116Z,0
2017-12-27T05:43:20.824Z,0
2017-12-27T05:44:42.364Z,0
2017-12-27T05:46:04.347Z,0
2017-12-27T05:47:26.439Z,0
2017-12-27T05:48:48.096Z,0
2017-12-27T05:50:09.948Z,0
2017-12-27T05:51:31.934Z,0
2017-12-27T05:52:53.546Z,0
2017-12-27T05:54:15.531Z,0
2017-12-27T05:55:36.891Z,0
2017-12-27T05:56:58.470Z,0
2017-12-27T05:58:19.854Z,0
2017-12-27T05:59:40.944Z,0
2017-12-27T06:01:02.288Z,0
2017-12-27T06:02:23.863Z,0
2017-12-27T06:03:45.722Z,0
2017-12-27T06:05:07.124Z,0
2017-12-27T06:06:29.004Z,0
2017-12-27T06:07:50.686Z,0
2017-12-27T06:09:12.565Z,0
2017-12-27T06:10:34.425Z,0
2017-12-27T06:11:55.774Z,0
2017-12-27T06:13:17.634Z,0
2017-12-27T06:14:39.216Z,0
2017-12-27T06:16:00.832Z,0
2017-12-27T06:17:22.507Z,0
2017-12-27T06:18:44.218Z,0
2017-12-27T06:20:06.496Z,0
2017-12-27T06:21:28.118Z,0
2017-12-27T06:22:49.775Z,0
2017-12-27T06:24:11.413Z,0
2017-12-27T06:25:33.586Z,0
2017-12-27T06:26:55.187Z,0
2017-12-27T06:28:16.509Z,0
2017-12-27T06:29:38.124Z,0
2017-12-27T06:30:59.957Z,0
2017-12-27T06:32:22.108Z,0
2017-12-27T06:33:43.939Z,0
2017-12-27T06:35:05.274Z,0
2017-12-27T06:36:26.716Z,0
2017-12-27T06:37:48.935Z,0
2017-12-27T06:39:10.519Z,0
2017-12-27T06:40:32.115Z,0
2017-12-27T06:41:54.283Z,0
2017-12-27T06:43:15.604Z,0
2017-12-27T06:44:37.726Z,0
2017-12-27T06:45:59.052Z,0
2017-12-27T06:47:20.899Z,0
2017-12-27T06:48:42.237Z,0
2017-12-27T06:50:03.580Z,0
2017-12-27T06:51:25.734Z,0
2017-12-27T06:52:47.865Z,0
2017-12-27T06:54:09.480Z,0
2017-12-27T06:55:30.877Z,0
2017-12-27T06:56:52.734Z,0
2017-12-27T06:58:14.614Z,0
2017-12-27T06:59:35.956Z,0
2017-12-27T07:00:57.793Z,0
2017-12-27T07:02:18.614Z,0
2017-12-27T07:03:40.463Z,0
2017-12-27T07:05:02.389Z,0
2017-12-27T07:06:23.968Z,4
2017-12-27T07:07:46.090Z,4
2017-12-27T07:09:07.424Z,4
2017-12-27T07:10:28.891Z,4
2017-12-27T07:11:50.983Z,4
2017-12-27T07:13:12.608Z,8
2017-12-27T07:14:34.453Z,8
2017-12-27T07:15:56.634Z,8
2017-12-27T07:17:18.595Z,8
2017-12-27T07:18:40.774Z,12
2017-12-27T07:20:02.649Z,16
2017-12-27T07:21:23.985Z,20
2017-12-27T07:22:45.406Z,24
2017-12-27T07:24:07.003Z,28
2017-12-27T07:25:28.595Z,32
2017-12-27T07:26:49.985Z,40
2017-12-27T07:28:11.854Z,40
2017-12-27T07:29:33.335Z,48
2017-12-27T07:30:54.904Z,56
2017-12-27T07:32:16.777Z,60
2017-12-27T07:33:38.904Z,64
2017-12-27T07:35:01.065Z,72
2017-12-27T07:36:22.493Z,80
2017-12-27T07:37:43.908Z,92
2017-12-27T07:39:06.217Z,100
2017-12-27T07:40:28.075Z,108
2017-12-27T07:41:49.719Z,120
2017-12-27T07:43:11.335Z,132
2017-12-27T07:44:33.189Z,140
2017-12-27T07:45:54.874Z,156
2017-12-27T07:47:16.854Z,164
2017-12-27T07:48:38.981Z,168
2017-12-27T07:50:00.562Z,176
2017-12-27T07:51:22.683Z,196
2017-12-27T07:52:44.409Z,232
2017-12-27T07:54:06.279Z,272
2017-12-27T07:55:28.124Z,312
2017-12-27T07:56:49.770Z,348
2017-12-27T07:58:11.479Z,384
2017-12-27T07:59:32.856Z,408
2017-12-27T08:00:54.439Z,436
2017-12-27T08:02:16.434Z,472
2017-12-27T08:03:38.097Z,516
2017-12-27T08:04:59.688Z,564
2017-12-27T08:06:21.293Z,604
2017-12-27T08:07:42.890Z,652
2017-12-27T08:09:04.153Z,688
2017-12-27T08:10:25.534Z,728
2017-12-27T08:11:47.394Z,764
2017-12-27T08:13:09.237Z,796
2017-12-27T08:14:31.087Z,828
2017-12-27T08:15:52.446Z,864
2017-12-27T08:17:14.623Z,896
2017-12-27T08:18:36.493Z,920
2017-12-27T08:19:58.887Z,932
2017-12-27T08:21:20.854Z,936
2017-12-27T08:22:42.613Z,940
2017-12-27T08:24:03.950Z,940
2017-12-27T08:25:25.688Z,936
2017-12-27T08:26:46.845Z,928
2017-12-27T08:28:08.962Z,912
2017-12-27T08:29:30.904Z,904
2017-12-27T08:30:52.320Z,908
2017-12-27T08:32:14.174Z,912
2017-12-27T08:33:35.846Z,920
2017-12-27T08:34:58.032Z,932
2017-12-27T08:36:19.650Z,944
2017-12-27T08:37:40.796Z,956
2017-12-27T08:39:02.964Z,972
2017-12-27T08:40:25.080Z,988
2017-12-27T08:41:47.194Z,1024
2017-12-27T08:43:09.038Z,1064
2017-12-27T08:44:30.378Z,1124
2017-12-27T08:45:51.710Z,1200
2017-12-27T08:47:13.814Z,1292
2017-12-27T08:48:36.163Z,1404
2017-12-27T08:49:58.160Z,1480
2017-12-27T08:51:19.752Z,1552
2017-12-27T08:52:41.958Z,1652
2017-12-27T08:54:04.073Z,1744
2017-12-27T08:55:26.210Z,1824
2017-12-27T08:56:47.836Z,1916
2017-12-27T08:58:09.736Z,2048
2017-12-27T08:59:31.608Z,2228
2017-12-27T09:00:53.592Z,2412
2017-12-27T09:02:15.470Z,2560
2017-12-27T09:03:37.220Z,2624
2017-12-27T09:04:59.066Z,2672
2017-12-27T09:06:21.054Z,2652
2017-12-27T09:07:42.930Z,2572
2017-12-27T09:09:04.774Z,2504
2017-12-27T09:10:26.398Z,2492
2017-12-27T09:11:48.504Z,2516
2017-12-27T09:13:09.846Z,2512
2017-12-27T09:14:31.746Z,2488
2017-12-27T09:15:53.867Z,2476
2017-12-27T09:17:15.734Z,2484
2017-12-27T09:18:37.615Z,2540
2017-12-27T09:19:59.468Z,2692
2017-12-27T09:21:20.797Z,2876
2017-12-27T09:22:42.973Z,3008
2017-12-27T09:24:04.834Z,2940
2017-12-27T09:25:26.192Z,3016
2017-12-27T09:26:48.338Z,3032
2017-12-27T09:28:10.194Z,2880
2017-12-27T09:29:31.826Z,2768
2017-12-27T09:30:53.694Z,2972
2017-12-27T09:32:15.694Z,3240
2017-12-27T09:33:37.824Z,3452
2017-12-27T09:34:59.452Z,3676
2017-12-27T09:36:21.583Z,3576
2017-12-27T09:37:42.908Z,3456
2017-12-27T09:39:04.521Z,3760
2017-12-27T09:40:26.159Z,3964
2017-12-27T09:41:48.273Z,3788
2017-12-27T09:43:10.164Z,3716
2017-12-27T09:44:32.275Z,3508
2017-12-27T09:45:54.383Z,3004
2017-12-27T09:47:15.985Z,2576
2017-12-27T09:48:38.167Z,2540
2017-12-27T09:49:59.794Z,2852
2017-12-27T09:51:21.690Z,2664
2017-12-27T09:52:43.844Z,2092
2017-12-27T09:54:05.864Z,1892
2017-12-27T09:55:27.974Z,2028
2017-12-27T09:56:49.341Z,2084
2017-12-27T09:58:11.476Z,2096
2017-12-27T09:59:33.323Z,2088
2017-12-27T10:00:55.080Z,2108
2017-12-27T10:02:17.226Z,2432
2017-12-27T10:03:38.951Z,2692
2017-12-27T10:05:00.593Z,2768
2017-12-27T10:06:21.966Z,3212
2017-12-27T10:07:44.118Z,3480
2017-12-27T10:09:06.085Z,3704
2017-12-27T10:10:28.318Z,3984
2017-12-27T10:11:49.927Z,4144
2017-12-27T10:13:11.906Z,4508
2017-12-27T10:14:34.014Z,4896
2017-12-27T10:15:55.626Z,5580
2017-12-27T10:17:17.242Z,6024
2017-12-27T10:18:39.426Z,5868
2017-12-27T10:20:01.092Z,5456
2017-12-27T10:21:22.753Z,4772
2017-12-27T10:22:44.882Z,4360
2017-12-27T10:24:06.565Z,4820
2017-12-27T10:25:28.412Z,5356
2017-12-27T10:26:50.302Z,5544
2017-12-27T10:28:12.445Z,5308
2017-12-27T10:29:34.320Z,5204
2017-12-27T10:30:55.936Z,5024
2017-12-27T10:32:18.047Z,4608
2017-12-27T10:33:39.405Z,4168
2017-12-27T10:35:01.164Z,3824
2017-12-27T10:36:23.443Z,3884
2017-12-27T10:37:45.051Z,4116
2017-12-27T10:39:06.673Z,4372
2017-12-27T10:40:28.047Z,4456
2017-12-27T10:41:49.910Z,4432
2017-12-27T10:43:12.044Z,4684
2017-12-27T10:44:34.183Z,5220
2017-12-27T10:45:55.778Z,5428
2017-12-27T10:47:17.383Z,5260
2017-12-27T10:48:38.979Z,4932
2017-12-27T10:50:00.843Z,4432
2017-12-27T10:51:23.031Z,4188
2017-12-27T10:52:45.074Z,3976
2017-12-27T10:54:07.105Z,3980
2017-12-27T10:55:28.472Z,3968
2017-12-27T10:56:50.357Z,4128
2017-12-27T10:58:12.612Z,4196
2017-12-27T10:59:34.766Z,4332
2017-12-27T11:00:56.477Z,4328
2017-12-27T11:02:17.891Z,4612
2017-12-27T11:03:40.049Z,5028
2017-12-27T11:05:01.655Z,5132
2017-12-27T11:06:23.616Z,5200
2017-12-27T11:07:45.600Z,5184
2017-12-27T11:09:07.233Z,5388
2017-12-27T11:10:29.475Z,5676
2017-12-27T11:11:51.666Z,5784
2017-12-27T11:13:13.841Z,5860
2017-12-27T11:14:35.977Z,5812
2017-12-27T11:15:57.997Z,5716
2017-12-27T11:17:19.612Z,5652
2017-12-27T11:18:41.730Z,5860
2017-12-27T11:20:04.000Z,5720
2017-12-27T11:21:25.958Z,5120
2017-12-27T11:22:47.944Z,4848
2017-12-27T11:24:10.108Z,4228
2017-12-27T11:25:31.719Z,3972
2017-12-27T11:26:53.593Z,4120
2017-12-27T11:28:15.725Z,4012
2017-12-27T11:29:37.632Z,3676
2017-12-27T11:30:59.346Z,3496
2017-12-27T11:32:21.219Z,3700
2017-12-27T11:33:43.363Z,3856
2017-12-27T11:35:04.975Z,3940
2017-12-27T11:36:26.864Z,4028
2017-12-27T11:37:48.766Z,3976
2017-12-27T11:39:10.688Z,3800
2017-12-27T11:40:32.884Z,3668
2017-12-27T11:41:54.834Z,3856
2017-12-27T11:43:16.447Z,3944
2017-12-27T11:44:37.855Z,4044
2017-12-27T11:45:59.197Z,4240
2017-12-27T11:47:21.397Z,4304
2017-12-27T11:48:43.722Z,4520
2017-12-27T11:50:05.374Z,4452
2017-12-27T11:51:27.533Z,4288
2017-12-27T11:52:49.257Z,4296
2017-12-27T11:54:11.538Z,4340
2017-12-27T11:55:33.666Z,4272
2017-12-27T11:56:55.525Z,4344
2017-12-27T11:58:17.699Z,4360
2017-12-27T11:59:39.577Z,4372
2017-12-27T12:01:01.435Z,4400
2017-12-27T12:02:23.404Z,4284
2017-12-27T12:03:45.582Z,4340
2017-12-27T12:05:07.726Z,4492
2017-12-27T12:06:29.892Z,4716
2017-12-27T12:07:51.526Z,4892
2017-12-27T12:09:13.664Z,4940
2017-12-27T12:10:35.275Z,5068
2017-12-27T12:11:57.294Z,5216
2017-12-27T12:13:18.604Z,5272
2017-12-27T12:14:39.946Z,5356
2017-12-27T12:16:02.412Z,5376
2017-12-27T12:17:24.590Z,5220
2017-12-27T12:18:46.884Z,5096
2017-12-27T12:20:09.019Z,5028
2017-12-27T12:21:30.646Z,4876
2017-12-27T12:22:52.531Z,4728
2017-12-27T12:24:14.133Z,4644
2017-12-27T12:25:35.252Z,4600
2017-12-27T12:26:57.487Z,4660
2017-12-27T12:28:19.372Z,4784
2017-12-27T12:29:41.254Z,4832
2017-12-27T12:31:03.124Z,4864
2017-12-27T12:32:25.333Z,4904
2017-12-27T12:33:47.261Z,4892
2017-12-27T12:35:08.980Z,4840
2017-12-27T12:36:30.901Z,4764
2017-12-27T12:37:52.764Z,4684
2017-12-27T12:39:15.013Z,4512
2017-12-27T12:40:36.615Z,4432
2017-12-27T12:41:58.784Z,4356
2017-12-27T12:43:20.972Z,4324
2017-12-27T12:44:42.845Z,4312
2017-12-27T12:46:04.465Z,4296
2017-12-27T12:47:26.349Z,4192
2017-12-27T12:48:48.228Z,4088
2017-12-27T12:50:10.086Z,4004
2017-12-27T12:51:31.801Z,3832
2017-12-27T12:52:53.433Z,3660
2017-12-27T12:54:15.034Z,3548
2017-12-27T12:55:36.913Z,3436
2017-12-27T12:56:58.524Z,3388
2017-12-27T12:58:20.664Z,3392
2017-12-27T12:59:42.815Z,3368
2017-12-27T13:01:04.748Z,3372
2017-12-27T13:02:26.888Z,3424
2017-12-27T13:03:48.762Z,3464
2017-12-27T13:05:10.910Z,3448
2017-12-27T13:06:32.603Z,3432
2017-12-27T13:07:54.503Z,3452
2017-12-27T13:09:16.129Z,3436
2017-12-27T13:10:38.268Z,3376
2017-12-27T13:12:00.160Z,3332
2017-12-27T13:13:22.402Z,3288
2017-12-27T13:14:44.446Z,3240
2017-12-27T13:16:06.120Z,3252
2017-12-27T13:17:28.068Z,3232
2017-12-27T13:18:49.686Z,3216
2017-12-27T13:20:11.932Z,3212
2017-12-27T13:21:34.057Z,3192
2017-12-27T13:22:55.650Z,3200
2017-12-27T13:24:17.239Z,3228
2017-12-27T13:25:39.395Z,3208
2017-12-27T13:27:01.259Z,3180
2017-12-27T13:28:22.994Z,3152
2017-12-27T13:29:44.879Z,3040
2017-12-27T13:31:06.242Z,2896
2017-12-27T13:32:28.393Z,2824
2017-12-27T13:33:50.237Z,2780
2017-12-27T13:35:12.363Z,2708
2017-12-27T13:36:34.026Z,2596
2017-12-27T13:37:55.803Z,2448
2017-12-27T13:39:17.473Z,2352
2017-12-27T13:40:39.341Z,2260
2017-12-27T13:42:01.480Z,2172
2017-12-27T13:43:23.472Z,2084
2017-12-27T13:44:45.722Z,2052
2017-12-27T13:46:07.864Z,1996
2017-12-27T13:47:30.031Z,1928
2017-12-27T13:48:51.435Z,1844
2017-12-27T13:50:13.339Z,1764
2017-12-27T13:51:35.243Z,1704
2017-12-27T13:52:57.406Z,1660
2017-12-27T13:54:19.261Z,1572
2017-12-27T13:55:40.910Z,1564
2017-12-27T13:57:02.868Z,1592
2017-12-27T13:58:24.491Z,1660
2017-12-27T13:59:46.333Z,1620
2017-12-27T14:01:07.844Z,1576
2017-12-27T14:02:30.053Z,1516
2017-12-27T14:03:52.163Z,1484
2017-12-27T14:05:13.533Z,1420
2017-12-27T14:06:35.142Z,1424
2017-12-27T14:07:56.550Z,1336
2017-12-27T14:09:18.531Z,1260
2017-12-27T14:10:40.443Z,1240
2017-12-27T14:12:02.359Z,1192
2017-12-27T14:13:24.612Z,1100
2017-12-27T14:14:46.216Z,1136
2017-12-27T14:16:08.182Z,1112
2017-12-27T14:17:29.803Z,1000
2017-12-27T14:18:51.406Z,972
2017-12-27T14:20:13.561Z,904
2017-12-27T14:21:35.487Z,788
2017-12-27T14:22:57.103Z,776
2017-12-27T14:24:19.344Z,732
2017-12-27T14:25:40.976Z,712
2017-12-27T14:27:03.219Z,648
2017-12-27T14:28:25.331Z,596
2017-12-27T14:29:46.727Z,596
2017-12-27T14:31:09.001Z,580
2017-12-27T14:32:30.994Z,504
2017-12-27T14:33:52.591Z,508
2017-12-27T14:35:14.525Z,448
2017-12-27T14:36:35.833Z,380
2017-12-27T14:37:58.095Z,372
2017-12-27T14:39:20.235Z,384
2017-12-27T14:40:42.366Z,328
2017-12-27T14:42:04.613Z,280
2017-12-27T14:43:26.780Z,280
2017-12-27T14:44:48.752Z,264
2017-12-27T14:46:10.633Z,264
2017-12-27T14:47:32.226Z,260
2017-12-27T14:48:53.854Z,240
2017-12-27T14:50:15.493Z,236
2017-12-27T14:51:37.630Z,216
2017-12-27T14:52:59.765Z,184
2017-12-27T14:54:21.143Z,168
2017-12-27T14:55:43.336Z,152
2017-12-27T14:57:05.524Z,144
2017-12-27T14:58:27.247Z,120
2017-12-27T14:59:48.890Z,112
2017-12-27T15:01:10.752Z,104
2017-12-27T15:02:32.922Z,104
2017-12-27T15:03:54.622Z,88
2017-12-27T15:05:16.240Z,92
2017-12-27T15:06:38.120Z,100
2017-12-27T15:08:00.053Z,96
2017-12-27T15:09:21.655Z,88
2017-12-27T15:10:43.803Z,88
2017-12-27T15:12:05.660Z,80
2017-12-27T15:13:27.528Z,68
2017-12-27T15:14:49.421Z,60
2017-12-27T15:16:11.412Z,52
2017-12-27T15:17:33.274Z,48
2017-12-27T15:18:55.451Z,44
2017-12-27T15:20:17.084Z,44
2017-12-27T15:21:39.341Z,36
2017-12-27T15:23:00.943Z,32
2017-12-27T15:24:22.322Z,28
2017-12-27T15:25:44.193Z,20
2017-12-27T15:27:05.834Z,16
2017-12-27T15:28:27.762Z,16
2017-12-27T15:29:49.675Z,12
2017-12-27T15:31:11.810Z,12
2017-12-27T15:32:33.954Z,12
2017-12-27T15:33:55.920Z,8
2017-12-27T15:35:17.917Z,8
2017-12-27T15:36:39.277Z,4
2017-12-27T15:38:01.428Z,4
2017-12-27T15:39:23.457Z,4
2017-12-27T15:40:45.399Z,0
2017-12-27T15:42:07.285Z,4
2017-12-27T15:43:29.447Z,4
2017-12-27T15:44:51.634Z,4
2017-12-27T15:46:13.563Z,0
2017-12-27T15:47:34.949Z,0
2017-12-27T15:48:57.077Z,0
2017-12-27T15:50:19.203Z,0
2017-12-27T15:51:41.071Z,0
2017-12-27T15:53:03.102Z,0
2017-12-27T15:54:25.064Z,0
2017-12-27T15:55:46.724Z,0
2017-12-27T15:57:08.929Z,0
2017-12-27T15:58:30.797Z,0
2017-12-27T15:59:52.905Z,0
2017-12-27T16:01:14.754Z,0
2017-12-27T16:02:36.664Z,0
2017-12-27T16:03:58.648Z,0
2017-12-27T16:05:20.539Z,0
2017-12-27T16:06:42.414Z,0
2017-12-27T16:08:04.286Z,0
2017-12-27T16:09:25.892Z,0
2017-12-27T16:10:47.912Z,0
2017-12-27T16:12:10.034Z,0
2017-12-27T16:13:31.916Z,0
2017-12-27T16:14:54.076Z,0
2017-12-27T16:16:16.213Z,0
2017-12-27T16:17:38.095Z,0
2017-12-27T16:19:00.001Z,0
2017-12-27T16:20:21.892Z,0
2017-12-27T16:21:43.233Z,0
2017-12-27T16:23:05.185Z,0
2017-12-27T16:24:27.512Z,0
2017-12-27T16:25:49.474Z,0
2017-12-27T16:27:11.757Z,0
2017-12-27T16:28:33.905Z,0
2017-12-27T16:29:56.054Z,0
2017-12-27T16:31:18.021Z,0
2017-12-27T16:32:40.165Z,0
2017-12-27T16:34:02.051Z,0
2017-12-27T16:35:24.192Z,0
2017-12-27T16:36:46.377Z,0
2017-12-27T16:38:08.038Z,0
2017-12-27T16:39:29.934Z,0
2017-12-27T16:40:52.086Z,0
2017-12-27T16:42:13.996Z,0
2017-12-27T16:43:36.173Z,0
2017-12-27T16:44:58.106Z,0
2017-12-27T16:46:20.255Z,0
2017-12-27T16:47:42.154Z,0
2017-12-27T16:49:04.287Z,0
2017-12-27T16:50:26.063Z,0
2017-12-27T16:51:48.208Z,0
2017-12-27T16:53:10.600Z,0
2017-12-27T16:54:32.592Z,0
2017-12-27T16:55:54.249Z,0
2017-12-27T16:57:16.418Z,0
2017-12-27T16:58:38.049Z,0
2017-12-27T17:00:00.192Z,0
2017-12-27T17:01:22.353Z,0
2017-12-27T17:02:44.474Z,0
2017-12-27T17:04:06.403Z,0
2017-12-27T17:05:28.631Z,0
2017-12-27T17:06:50.258Z,0
2017-12-27T17:08:12.443Z,0
2017-12-27T17:09:34.671Z,0
2017-12-27T17:10:57.447Z,0
2017-12-27T17:12:19.401Z,0
2017-12-27T17:13:41.111Z,0
2017-12-27T17:15:02.522Z,0
2017-12-27T17:16:24.683Z,0
2017-12-27T17:17:46.586Z,0
2017-12-27T17:19:08.223Z,0
2017-12-27T17:20:30.392Z,0
2017-12-27T17:21:52.480Z,0
2017-12-27T17:23:14.091Z,0
2017-12-27T17:24:36.002Z,0
2017-12-27T17:25:58.171Z,0
2017-12-27T17:27:20.184Z,0
2017-12-27T17:28:42.327Z,0
2017-12-27T17:30:04.473Z,0
2017-12-27T17:31:26.488Z,0
2017-12-27T17:32:48.158Z,0
2017-12-27T17:34:10.178Z,0
2017-12-27T17:35:32.376Z,0
2017-12-27T17:36:54.532Z,0
2017-12-27T17:38:16.485Z,0
2017-12-27T17:39:38.376Z,0
2017-12-27T17:41:00.537Z,0
2017-12-27T17:42:22.690Z,0
2017-12-27T17:43:44.878Z,0
2017-12-27T17:45:07.041Z,0
2017-12-27T17:46:28.930Z,0
2017-12-27T17:47:51.165Z,0
2017-12-27T17:49:13.333Z,0
2017-12-27T17:50:35.508Z,0
2017-12-27T17:51:57.514Z,0
2017-12-27T17:53:19.701Z,0
2017-12-27T17:54:41.348Z,0
2017-12-27T17:56:02.975Z,0
2017-12-27T17:57:25.128Z,0
2017-12-27T17:58:46.816Z,0
2017-12-27T18:00:08.965Z,0
2017-12-27T18:01:31.210Z,0
2017-12-27T18:02:53.114Z,0
2017-12-27T18:04:15.000Z,0
2017-12-27T18:05:37.174Z,0
2017-12-27T18:06:59.377Z,0
2017-12-27T18:08:21.277Z,0
2017-12-27T18:09:43.375Z,0
2017-12-27T18:11:05.513Z,0
2017-12-27T18:12:27.462Z,0
2017-12-27T18:13:49.596Z,0
2017-12-27T18:15:11.548Z,0
2017-12-27T18:16:33.714Z,0
2017-12-27T18:17:55.987Z,0
2017-12-27T18:19:17.875Z,0
2017-12-27T18:20:40.010Z,0
2017-12-27T18:22:02.324Z,0
2017-12-27T18:23:24.475Z,0
2017-12-27T18:24:46.523Z,0
2017-12-27T18:26:08.694Z,0
2017-12-27T18:27:30.308Z,0
2017-12-27T18:28:52.472Z,0
2017-12-27T18:30:14.391Z,0
2017-12-27T18:31:36.554Z,0
2017-12-27T18:32:58.211Z,0
2017-12-27T18:34:20.104Z,0
2017-12-27T18:35:42.337Z,0
2017-12-27T18:37:04.204Z,0
2017-12-27T18:38:25.834Z,0
2017-12-27T18:39:47.429Z,0
2017-12-27T18:41:09.567Z,0
2017-12-27T18:42:31.681Z,0
2017-12-27T18:43:53.882Z,0
2017-12-27T18:45:16.067Z,0
2017-12-27T18:46:37.959Z,0
2017-12-27T18:48:00.102Z,0
2017-12-27T18:49:21.225Z,0
2017-12-27T18:50:43.392Z,0
2017-12-27T18:52:05.515Z,0
2017-12-27T18:53:27.404Z,0
2017-12-27T18:54:49.283Z,0
2017-12-27T18:56:11.415Z,0
2017-12-27T18:57:33.371Z,0
2017-12-27T18:58:55.509Z,0
2017-12-27T19:00:17.467Z,0
2017-12-27T19:01:39.444Z,0
2017-12-27T19:03:01.623Z,0
2017-12-27T19:04:23.572Z,0
2017-12-27T19:05:45.525Z,0
2017-12-27T19:07:07.687Z,0
2017-12-27T19:08:29.659Z,0
2017-12-27T19:09:51.799Z,0
2017-12-27T19:11:13.397Z,0
2017-12-27T19:12:35.525Z,0
2017-12-27T19:13:57.778Z,0
2017-12-27T19:15:19.655Z,0
2017-12-27T19:16:41.635Z,0
2017-12-27T19:18:03.788Z,0
2017-12-27T19:19:25.964Z,0
2017-12-27T19:20:48.158Z,0
2017-12-27T19:22:10.623Z,0
2017-12-27T19:23:32.516Z,0